Time;durP1;ratioP1;P1;durP2;ratioP2;P2;SDS_P1;SDS_P2;PMS_P1;PMS_P2;Temp;Humidity;BMP_temperature;BMP_pressure;BME280_temperature;BME280_humidity;BME280_pressure;Samples;Min_cycle;Max_cycle;Signal;HPM_P1;HPM_P2
2023/09/02 00:01:40;;;;;;;6.70;2.90;;;;;;;-128.00;-1.00;-1.00;18901;296;7504107;-37
2023/09/02 00:04:07;;;;;;;3.80;3.40;;;;;;;-128.00;-1.00;-1.00;18897;295;7504346;-34
2023/09/02 00:06:33;;;;;;;2.40;1.70;;;;;;;-128.00;-1.00;-1.00;18508;288;7506195;-32
2023/09/02 00:08:59;;;;;;;3.90;3.30;;;;;;;-128.00;-1.00;-1.00;18881;288;7504791;-33
2023/09/02 00:11:25;;;;;;;3.80;2.60;;;;;;;-128.00;-1.00;-1.00;18884;295;7504554;-36
2023/09/02 00:13:51;;;;;;;3.90;3.20;;;;;;;-128.00;-1.00;-1.00;18860;298;7504674;-35
2023/09/02 00:16:17;;;;;;;4.80;2.40;;;;;;;-128.00;-1.00;-1.00;18883;297;7504485;-33
2023/09/02 00:18:46;;;;;;;3.90;2.90;;;;;;;-128.00;-1.00;-1.00;18863;336;7504586;-32
2023/09/02 00:21:12;;;;;;;2.60;1.90;;;;;;;-128.00;-1.00;-1.00;18492;347;7504388;-33
2023/09/02 00:23:43;;;;;;;3.10;2.20;;;;;;;-128.00;-1.00;-1.00;18528;296;7505308;-36
2023/09/02 00:26:09;;;;;;;3.10;1.50;;;;;;;-128.00;-1.00;-1.00;18478;288;7506014;-33
2023/09/02 00:28:34;;;;;;;2.40;1.80;;;;;;;-128.00;-1.00;-1.00;18467;295;7504474;-32
2023/09/02 00:31:00;;;;;;;5.50;1.90;;;;;;;-128.00;-1.00;-1.00;18915;288;7504434;-37
2023/09/02 00:33:27;;;;;;;3.80;3.10;;;;;;;-128.00;-1.00;-1.00;18902;288;7504642;-35
2023/09/02 00:35:53;;;;;;;4.10;2.60;;;;;;;-128.00;-1.00;-1.00;18865;288;7505220;-32
2023/09/02 01:18:47;;;;;;;4.20;3.30;;;;;;;-99.71;19.20;19886.93;19558;294;8045989;-38
2023/09/02 01:21:39;;;;;;;3.50;3.10;;;;;;;-128.00;-1.00;-1.00;18450;297;7504250;-38
2023/09/02 01:24:12;;;;;;;3.70;3.10;;;;;;;-128.00;-1.00;-1.00;18486;306;7504493;-38
2023/09/02 01:26:44;;;;;;;4.50;3.10;;;;;;;-128.00;-1.00;-1.00;18469;282;7504993;-38
2023/09/02 01:29:10;;;;;;;4.60;3.10;;;;;;;-128.00;-1.00;-1.00;18499;294;7505155;-37
2023/09/02 01:31:36;;;;;;;3.30;2.10;;;;;;;-128.00;-1.00;-1.00;18486;288;7505024;-33
2023/09/02 01:34:02;;;;;;;5.70;3.80;;;;;;;-128.00;-1.00;-1.00;18483;306;7504474;-36
2023/09/02 01:36:29;;;;;;;4.10;3.30;;;;;;;-128.00;-1.00;-1.00;18885;294;7504966;-33
2023/09/02 01:38:55;;;;;;;3.80;2.60;;;;;;;-128.00;-1.00;-1.00;18484;296;7504668;-34
2023/09/02 01:41:21;;;;;;;3.10;2.10;;;;;;;-128.00;-1.00;-1.00;18484;294;7506410;-32
2023/09/02 01:43:47;;;;;;;6.60;2.80;;;;;;;-128.00;-1.00;-1.00;18497;294;7505597;-32
2023/09/02 01:46:12;;;;;;;3.40;2.90;;;;;;;-128.00;-1.00;-1.00;18475;294;7504449;-33
2023/09/02 01:48:39;;;;;;;4.50;3.40;;;;;;;-128.00;-1.00;-1.00;18897;294;7504772;-36
2023/09/02 01:51:05;;;;;;;3.40;3.10;;;;;;;-128.00;-1.00;-1.00;18903;294;7504517;-33
2023/09/02 01:53:31;;;;;;;3.20;2.80;;;;;;;-128.00;-1.00;-1.00;18878;335;7504118;-36
2023/09/02 01:55:57;;;;;;;10.30;2.90;;;;;;;-128.00;-1.00;-1.00;18880;294;7505997;-36
2023/09/02 01:58:24;;;;;;;3.40;3.00;;;;;;;-128.00;-1.00;-1.00;18884;294;7504817;-36
2023/09/02 02:00:50;;;;;;;3.90;3.30;;;;;;;-128.00;-1.00;-1.00;18478;318;7504937;-32
2023/09/02 02:03:29;;;;;;;4.20;2.60;;;;;;;-128.00;-1.00;-1.00;18510;346;7505571;-37
2023/09/02 02:05:54;;;;;;;5.40;2.70;;;;;;;-128.00;-1.00;-1.00;18496;295;7506237;-33
2023/09/02 02:08:25;;;;;;;7.10;3.50;;;;;;;-128.00;-1.00;-1.00;18498;293;7504521;-36
2023/09/02 02:10:51;;;;;;;4.00;3.20;;;;;;;-128.00;-1.00;-1.00;18497;295;7504619;-36
2023/09/02 02:13:17;;;;;;;3.60;2.40;;;;;;;-128.00;-1.00;-1.00;18897;337;7505058;-36
2023/09/02 02:15:43;;;;;;;4.80;4.30;;;;;;;-128.00;-1.00;-1.00;18896;346;7505450;-36
2023/09/02 02:18:09;;;;;;;6.60;4.10;;;;;;;-128.00;-1.00;-1.00;18887;294;7505507;-36
2023/09/02 02:20:41;;;;;;;3.70;3.30;;;;;;;-128.00;-1.00;-1.00;18896;288;7504105;-36
2023/09/02 02:23:06;;;;;;;2.90;2.50;;;;;;;-128.00;-1.00;-1.00;18445;294;7505779;-33
2023/09/02 02:25:32;;;;;;;3.70;3.40;;;;;;;-128.00;-1.00;-1.00;18467;346;7507648;-32
2023/09/02 02:27:59;;;;;;;3.90;3.40;;;;;;;-128.00;-1.00;-1.00;18899;296;7504188;-33
2023/09/02 02:30:25;;;;;;;3.60;3.30;;;;;;;-128.00;-1.00;-1.00;18506;334;7504178;-32
2023/09/02 02:32:51;;;;;;;6.30;4.30;;;;;;;-128.00;-1.00;-1.00;18899;294;7504298;-33
2023/09/02 02:35:21;;;;;;;3.70;3.30;;;;;;;-128.00;-1.00;-1.00;18889;294;7504623;-33
2023/09/02 02:37:46;;;;;;;4.30;2.90;;;;;;;-128.00;-1.00;-1.00;18480;294;7506035;-36
2023/09/02 02:40:12;;;;;;;7.30;2.60;;;;;;;-128.00;-1.00;-1.00;18482;334;7504667;-36
2023/09/02 02:42:38;;;;;;;5.50;4.00;;;;;;;-128.00;-1.00;-1.00;18896;295;7505096;-33
2023/09/02 02:45:05;;;;;;;6.90;5.40;;;;;;;-128.00;-1.00;-1.00;18871;347;7504455;-33
2023/09/02 02:47:31;;;;;;;3.30;2.90;;;;;;;-128.00;-1.00;-1.00;18501;294;7506996;-36
2023/09/02 02:49:57;;;;;;;7.10;3.60;;;;;;;-128.00;-1.00;-1.00;18890;294;7504372;-33
2023/09/02 02:52:23;;;;;;;5.90;4.60;;;;;;;-128.00;-1.00;-1.00;18894;294;7505373;-36
2023/09/02 02:54:49;;;;;;;4.80;3.90;;;;;;;-128.00;-1.00;-1.00;18918;306;7505246;-36
2023/09/02 02:57:15;;;;;;;5.00;4.20;;;;;;;-128.00;-1.00;-1.00;18889;294;7504367;-36
2023/09/02 02:59:41;;;;;;;6.10;2.90;;;;;;;-128.00;-1.00;-1.00;18885;293;7504722;-36
2023/09/02 03:02:07;;;;;;;4.70;3.80;;;;;;;-128.00;-1.00;-1.00;18894;296;7504468;-36
2023/09/02 03:04:35;;;;;;;3.80;3.40;;;;;;;-128.00;-1.00;-1.00;18880;287;7504664;-32
2023/09/02 03:07:00;;;;;;;3.70;3.40;;;;;;;-128.00;-1.00;-1.00;18493;295;7505992;-33
2023/09/02 03:09:26;;;;;;;5.70;4.20;;;;;;;-128.00;-1.00;-1.00;18884;346;7504377;-33
2023/09/02 03:11:52;;;;;;;6.10;3.90;;;;;;;-128.00;-1.00;-1.00;18882;287;7504812;-36
2023/09/02 03:14:19;;;;;;;5.40;3.90;;;;;;;-128.00;-1.00;-1.00;18914;294;7504573;-34
2023/09/02 03:16:45;;;;;;;6.20;3.70;;;;;;;-128.00;-1.00;-1.00;18857;346;7505227;-36
2023/09/02 03:19:11;;;;;;;2.90;2.50;;;;;;;-128.00;-1.00;-1.00;18891;321;7505488;-36
2023/09/02 03:21:38;;;;;;;3.80;2.40;;;;;;;-128.00;-1.00;-1.00;18870;305;7504526;-36
2023/09/02 03:24:04;;;;;;;3.80;3.30;;;;;;;-128.00;-1.00;-1.00;18863;283;7505151;-36
2023/09/02 03:26:30;;;;;;;5.30;3.80;;;;;;;-128.00;-1.00;-1.00;18899;310;7505642;-36
2023/09/02 03:28:57;;;;;;;3.20;2.70;;;;;;;-128.00;-1.00;-1.00;18896;287;7507087;-32
2023/09/02 03:31:23;;;;;;;4.40;4.00;;;;;;;-128.00;-1.00;-1.00;18883;294;7504552;-33
2023/09/02 03:33:49;;;;;;;4.70;4.10;;;;;;;-128.00;-1.00;-1.00;18853;346;7504150;-36
2023/09/02 03:36:16;;;;;;;4.60;3.10;;;;;;;-128.00;-1.00;-1.00;18875;294;7504195;-35
2023/09/02 03:38:42;;;;;;;3.40;2.90;;;;;;;-128.00;-1.00;-1.00;18476;346;7505025;-36
2023/09/02 03:41:11;;;;;;;4.50;3.50;;;;;;;-128.00;-1.00;-1.00;18490;346;7505039;-36
2023/09/02 03:43:36;;;;;;;3.70;3.20;;;;;;;-128.00;-1.00;-1.00;18489;294;7504740;-36
2023/09/02 03:46:03;;;;;;;9.30;3.80;;;;;;;-128.00;-1.00;-1.00;18900;294;7504355;-33
2023/09/02 03:48:29;;;;;;;4.20;3.80;;;;;;;-128.00;-1.00;-1.00;18902;343;7504394;-33
2023/09/02 03:51:11;;;;;;;8.30;3.70;;;;;;;-128.00;-1.00;-1.00;18889;306;7506757;-36
2023/09/02 03:53:37;;;;;;;3.90;3.50;;;;;;;-128.00;-1.00;-1.00;18458;295;7504453;-34
2023/09/02 03:56:03;;;;;;;2.50;2.20;;;;;;;-128.00;-1.00;-1.00;18468;295;7505044;-36
2023/09/02 03:58:29;;;;;;;4.20;3.90;;;;;;;-128.00;-1.00;-1.00;18489;294;7504895;-33
2023/09/02 04:00:56;;;;;;;3.90;3.60;;;;;;;-128.00;-1.00;-1.00;18473;296;7505279;-34
2023/09/02 04:03:21;;;;;;;6.90;3.30;;;;;;;-128.00;-1.00;-1.00;18474;295;7504692;-37
2023/09/02 04:05:48;;;;;;;5.20;3.50;;;;;;;-128.00;-1.00;-1.00;18499;294;7504762;-33
2023/09/02 04:08:17;;;;;;;4.70;3.20;;;;;;;-128.00;-1.00;-1.00;18470;295;7506305;-33
2023/09/02 04:10:42;;;;;;;3.70;3.30;;;;;;;-128.00;-1.00;-1.00;18454;296;7505221;-33
2023/09/02 04:13:08;;;;;;;4.40;2.40;;;;;;;-128.00;-1.00;-1.00;18484;285;7504680;-36
2023/09/02 04:15:34;;;;;;;5.60;4.20;;;;;;;-128.00;-1.00;-1.00;18475;295;7505770;-33
2023/09/02 04:17:59;;;;;;;3.80;3.40;;;;;;;-128.00;-1.00;-1.00;18483;287;7504800;-36
2023/09/02 04:20:26;;;;;;;5.70;3.60;;;;;;;-128.00;-1.00;-1.00;18480;294;7504338;-36
2023/09/02 04:22:52;;;;;;;8.80;4.20;;;;;;;-128.00;-1.00;-1.00;18473;288;7505221;-33
2023/09/02 04:25:19;;;;;;;4.80;4.20;;;;;;;-128.00;-1.00;-1.00;18505;294;7504392;-36
2023/09/02 04:27:46;;;;;;;4.80;4.40;;;;;;;-128.00;-1.00;-1.00;18477;294;7504611;-33
2023/09/02 04:30:12;;;;;;;3.10;2.20;;;;;;;-128.00;-1.00;-1.00;18489;294;7506093;-36
2023/09/02 04:32:37;;;;;;;6.80;4.20;;;;;;;-128.00;-1.00;-1.00;18487;294;7504199;-33
2023/09/02 04:35:05;;;;;;;9.20;5.70;;;;;;;-128.00;-1.00;-1.00;18896;287;7504655;-33
2023/09/02 04:37:30;;;;;;;4.90;4.50;;;;;;;-128.00;-1.00;-1.00;18474;285;7504127;-33
2023/09/02 04:39:56;;;;;;;5.00;4.40;;;;;;;-128.00;-1.00;-1.00;18483;294;7504441;-36
2023/09/02 04:42:22;;;;;;;4.50;4.10;;;;;;;-128.00;-1.00;-1.00;18469;294;7504954;-36
2023/09/02 04:44:50;;;;;;;16.40;4.90;;;;;;;-128.00;-1.00;-1.00;18880;294;7504684;-33
2023/09/02 04:47:16;;;;;;;4.20;3.80;;;;;;;-128.00;-1.00;-1.00;18464;294;7504758;-35
2023/09/02 04:49:42;;;;;;;4.80;4.40;;;;;;;-128.00;-1.00;-1.00;18494;287;7504848;-33
2023/09/02 04:52:07;;;;;;;4.80;4.30;;;;;;;-128.00;-1.00;-1.00;18486;346;7505174;-36
2023/09/02 04:54:33;;;;;;;8.30;5.50;;;;;;;-128.00;-1.00;-1.00;18472;294;7504855;-33
2023/09/02 04:56:58;;;;;;;5.00;4.60;;;;;;;-128.00;-1.00;-1.00;18484;294;7506240;-35
2023/09/02 04:59:26;;;;;;;6.40;5.80;;;;;;;-128.00;-1.00;-1.00;18862;311;7505094;-32
2023/09/02 05:01:51;;;;;;;4.30;3.90;;;;;;;-128.00;-1.00;-1.00;18483;346;7504631;-33
2023/09/02 05:04:17;;;;;;;4.90;4.10;;;;;;;-128.00;-1.00;-1.00;18866;346;7504305;-35
2023/09/02 05:06:44;;;;;;;8.10;4.80;;;;;;;-128.00;-1.00;-1.00;18893;288;7504228;-32
2023/09/02 05:09:10;;;;;;;5.50;4.50;;;;;;;-128.00;-1.00;-1.00;18875;295;7504979;-35
2023/09/02 05:11:36;;;;;;;5.20;4.40;;;;;;;-128.00;-1.00;-1.00;18896;295;7504847;-33
2023/09/02 05:14:02;;;;;;;6.10;4.30;;;;;;;-128.00;-1.00;-1.00;18881;294;7504864;-35
2023/09/02 05:16:28;;;;;;;5.00;4.40;;;;;;;-128.00;-1.00;-1.00;18861;295;7505071;-35
2023/09/02 05:18:54;;;;;;;3.90;3.50;;;;;;;-128.00;-1.00;-1.00;18870;294;7504800;-32
2023/09/02 05:21:20;;;;;;;5.40;4.50;;;;;;;-128.00;-1.00;-1.00;18898;294;7504535;-32
2023/09/02 05:23:47;;;;;;;5.20;4.20;;;;;;;-128.00;-1.00;-1.00;18869;295;7504644;-33
2023/09/02 05:26:13;;;;;;;6.60;4.10;;;;;;;-128.00;-1.00;-1.00;18894;295;7505972;-32
2023/09/02 05:28:39;;;;;;;4.50;4.10;;;;;;;-128.00;-1.00;-1.00;18880;295;7504320;-33
2023/09/02 05:31:05;;;;;;;4.50;3.50;;;;;;;-128.00;-1.00;-1.00;18876;288;7504106;-33
2023/09/02 05:33:31;;;;;;;7.70;4.10;;;;;;;-128.00;-1.00;-1.00;18870;295;7505416;-36
2023/09/02 05:35:57;;;;;;;5.80;3.20;;;;;;;-128.00;-1.00;-1.00;18892;295;7504883;-36
2023/09/02 05:38:24;;;;;;;4.50;3.70;;;;;;;-128.00;-1.00;-1.00;18874;289;7504522;-36
2023/09/02 05:40:50;;;;;;;6.60;4.30;;;;;;;-128.00;-1.00;-1.00;18901;306;7504696;-35
2023/09/02 05:43:17;;;;;;;11.00;3.70;;;;;;;-128.00;-1.00;-1.00;18885;346;7504383;-32
2023/09/02 05:45:42;;;;;;;4.90;4.00;;;;;;;-128.00;-1.00;-1.00;18484;294;7504835;-32
2023/09/02 05:48:08;;;;;;;4.20;3.10;;;;;;;-128.00;-1.00;-1.00;18472;303;7505010;-32
2023/09/02 05:50:34;;;;;;;4.10;3.60;;;;;;;-128.00;-1.00;-1.00;18466;294;7504728;-36
2023/09/02 05:52:59;;;;;;;4.70;3.40;;;;;;;-128.00;-1.00;-1.00;18457;339;7505763;-36
2023/09/02 05:55:25;;;;;;;3.30;3.00;;;;;;;-128.00;-1.00;-1.00;18468;295;7504662;-33
2023/09/02 05:57:51;;;;;;;15.10;3.80;;;;;;;-128.00;-1.00;-1.00;18497;336;7506445;-36
2023/09/02 06:00:17;;;;;;;3.60;3.30;;;;;;;-128.00;-1.00;-1.00;18885;334;7504554;-35
2023/09/02 06:02:43;;;;;;;5.30;4.20;;;;;;;-128.00;-1.00;-1.00;18876;308;7504848;-36
2023/09/02 06:05:10;;;;;;;4.50;3.60;;;;;;;-128.00;-1.00;-1.00;18891;294;7504509;-33
2023/09/02 06:07:36;;;;;;;3.80;3.10;;;;;;;-128.00;-1.00;-1.00;18901;338;7505575;-33
2023/09/02 06:10:02;;;;;;;3.80;3.10;;;;;;;-128.00;-1.00;-1.00;18895;286;7504561;-33
2023/09/02 06:12:28;;;;;;;4.30;3.40;;;;;;;-128.00;-1.00;-1.00;18899;295;7504570;-36
2023/09/02 06:14:54;;;;;;;4.40;3.20;;;;;;;-128.00;-1.00;-1.00;18885;294;7505149;-33
2023/09/02 06:17:21;;;;;;;8.60;3.10;;;;;;;-128.00;-1.00;-1.00;18881;287;7504359;-33
2023/09/02 06:19:47;;;;;;;3.40;3.10;;;;;;;-128.00;-1.00;-1.00;18473;294;7504207;-33
2023/09/02 06:22:13;;;;;;;5.60;2.90;;;;;;;-128.00;-1.00;-1.00;18890;294;7506283;-32
2023/09/02 06:24:39;;;;;;;3.20;2.90;;;;;;;-128.00;-1.00;-1.00;18881;295;7504749;-34
2023/09/02 06:27:05;;;;;;;3.90;2.80;;;;;;;-128.00;-1.00;-1.00;18886;287;7504667;-35
2023/09/02 06:29:32;;;;;;;4.10;3.30;;;;;;;-128.00;-1.00;-1.00;18880;296;7504726;-35
2023/09/02 06:31:59;;;;;;;4.60;3.50;;;;;;;-128.00;-1.00;-1.00;18490;294;7505818;-31
2023/09/02 06:34:24;;;;;;;5.70;3.20;;;;;;;-128.00;-1.00;-1.00;18494;335;7504473;-32
2023/09/02 06:36:51;;;;;;;2.60;2.20;;;;;;;-128.00;-1.00;-1.00;18483;287;7506478;-35
2023/09/02 06:39:17;;;;;;;3.20;2.80;;;;;;;-128.00;-1.00;-1.00;18886;294;7504510;-32
2023/09/02 06:41:43;;;;;;;8.60;2.50;;;;;;;-128.00;-1.00;-1.00;18884;294;7506056;-36
2023/09/02 06:44:09;;;;;;;8.50;2.40;;;;;;;-128.00;-1.00;-1.00;18895;288;7504966;-32
2023/09/02 06:46:38;;;;;;;6.20;1.70;;;;;;;-128.00;-1.00;-1.00;18903;294;7504820;-35
2023/09/02 06:49:05;;;;;;;2.30;1.90;;;;;;;-128.00;-1.00;-1.00;18488;295;7504279;-35
2023/09/02 06:51:31;;;;;;;3.60;1.30;;;;;;;-128.00;-1.00;-1.00;18465;346;7504629;-32
2023/09/02 06:53:57;;;;;;;3.40;1.10;;;;;;;-128.00;-1.00;-1.00;18497;294;7504620;-35
2023/09/02 06:56:22;;;;;;;1.80;1.30;;;;;;;-128.00;-1.00;-1.00;18463;288;7504610;-32
2023/09/02 06:58:49;;;;;;;2.10;1.30;;;;;;;-128.00;-1.00;-1.00;18885;335;7505806;-35
2023/09/02 07:01:21;;;;;;;1.80;1.20;;;;;;;-128.00;-1.00;-1.00;18487;294;7504388;-36
2023/09/02 07:03:47;;;;;;;1.90;1.20;;;;;;;-128.00;-1.00;-1.00;18462;295;7504335;-36
2023/09/02 07:06:13;;;;;;;2.60;2.20;;;;;;;-128.00;-1.00;-1.00;18486;287;7504420;-36
2023/09/02 07:08:40;;;;;;;3.80;1.10;;;;;;;-128.00;-1.00;-1.00;18498;288;7504974;-33
2023/09/02 07:11:06;;;;;;;2.70;1.90;;;;;;;-128.00;-1.00;-1.00;18476;295;7504744;-36
2023/09/02 07:13:32;;;;;;;2.50;1.60;;;;;;;-128.00;-1.00;-1.00;18497;295;7504705;-36
2023/09/02 07:15:59;;;;;;;1.70;1.30;;;;;;;-128.00;-1.00;-1.00;18480;294;7504671;-36
2023/09/02 07:18:25;;;;;;;2.00;1.40;;;;;;;-128.00;-1.00;-1.00;18466;300;7506005;-32
2023/09/02 07:20:51;;;;;;;4.60;1.90;;;;;;;-128.00;-1.00;-1.00;18460;294;7504369;-36
2023/09/02 07:23:17;;;;;;;2.00;1.00;;;;;;;-128.00;-1.00;-1.00;18488;287;7504476;-32
2023/09/02 07:25:43;;;;;;;3.30;1.60;;;;;;;-128.00;-1.00;-1.00;18468;306;7504472;-32
2023/09/02 07:28:08;;;;;;;1.40;1.20;;;;;;;-128.00;-1.00;-1.00;18481;294;7505063;-36
2023/09/02 07:30:43;;;;;;;2.20;1.20;;;;;;;-128.00;-1.00;-1.00;18892;288;7504532;-33
2023/09/02 07:33:09;;;;;;;1.30;1.10;;;;;;;-128.00;-1.00;-1.00;18474;294;7506963;-36
2023/09/02 07:35:37;;;;;;;1.40;1.20;;;;;;;-128.00;-1.00;-1.00;18868;319;7506243;-36
2023/09/02 07:38:04;;;;;;;1.90;1.20;;;;;;;-128.00;-1.00;-1.00;18488;294;7506042;-36
2023/09/02 07:40:29;;;;;;;0.90;0.80;;;;;;;-128.00;-1.00;-1.00;18474;309;7504255;-35
2023/09/02 07:42:57;;;;;;;1.50;1.00;;;;;;;-128.00;-1.00;-1.00;18896;294;7506668;-36
2023/09/02 07:45:23;;;;;;;1.60;0.60;;;;;;;-128.00;-1.00;-1.00;18470;293;7506440;-36
2023/09/02 07:47:49;;;;;;;5.10;1.00;;;;;;;-128.00;-1.00;-1.00;18466;295;7506540;-32
2023/09/02 07:50:14;;;;;;;4.20;1.20;;;;;;;-128.00;-1.00;-1.00;18484;294;7505555;-32
2023/09/02 07:52:40;;;;;;;1.90;0.80;;;;;;;-128.00;-1.00;-1.00;18480;294;7506257;-31
2023/09/02 07:55:07;;;;;;;1.00;0.70;;;;;;;-128.00;-1.00;-1.00;18860;297;7505643;-32
2023/09/02 07:57:32;;;;;;;2.60;1.60;;;;;;;-128.00;-1.00;-1.00;18477;346;7505189;-36
2023/09/02 07:59:59;;;;;;;1.40;1.00;;;;;;;-128.00;-1.00;-1.00;18484;288;7505189;-36
2023/09/02 08:02:25;;;;;;;1.20;0.80;;;;;;;-128.00;-1.00;-1.00;18482;287;7504793;-32
2023/09/02 08:04:51;;;;;;;1.40;1.00;;;;;;;-128.00;-1.00;-1.00;18499;346;7505274;-32
2023/09/02 08:07:17;;;;;;;1.40;1.10;;;;;;;-128.00;-1.00;-1.00;18915;294;7505671;-35
2023/09/02 08:09:43;;;;;;;1.70;1.10;;;;;;;-128.00;-1.00;-1.00;18909;294;7505421;-32
2023/09/02 08:12:09;;;;;;;2.60;1.10;;;;;;;-128.00;-1.00;-1.00;18901;294;7504277;-36
2023/09/02 08:14:35;;;;;;;1.60;1.00;;;;;;;-128.00;-1.00;-1.00;18887;287;7505237;-32
2023/09/02 08:17:01;;;;;;;2.10;1.00;;;;;;;-128.00;-1.00;-1.00;18874;294;7504642;-34
2023/09/02 08:19:31;;;;;;;3.10;0.90;;;;;;;-128.00;-1.00;-1.00;18881;295;7504318;-32
2023/09/02 08:21:56;;;;;;;2.00;1.00;;;;;;;-128.00;-1.00;-1.00;18491;294;7504651;-36
2023/09/02 08:24:22;;;;;;;0.70;0.70;;;;;;;-128.00;-1.00;-1.00;18473;346;7505658;-32
2023/09/02 08:26:48;;;;;;;1.40;1.10;;;;;;;-128.00;-1.00;-1.00;18894;295;7504628;-36
2023/09/02 08:29:15;;;;;;;2.10;0.80;;;;;;;-128.00;-1.00;-1.00;18877;294;7506100;-36
2023/09/02 08:31:41;;;;;;;4.80;1.60;;;;;;;-128.00;-1.00;-1.00;18875;302;7504441;-32
2023/09/02 08:34:07;;;;;;;1.20;1.10;;;;;;;-128.00;-1.00;-1.00;18884;294;7504730;-36
2023/09/02 08:36:33;;;;;;;1.50;0.90;;;;;;;-128.00;-1.00;-1.00;18881;294;7504333;-38
2023/09/02 08:38:59;;;;;;;1.80;1.10;;;;;;;-128.00;-1.00;-1.00;18878;294;7504889;-32
2023/09/02 08:41:29;;;;;;;1.80;0.70;;;;;;;-128.00;-1.00;-1.00;18880;294;7504796;-31
2023/09/02 08:43:55;;;;;;;1.90;0.80;;;;;;;-128.00;-1.00;-1.00;18487;286;7504238;-32
2023/09/02 08:46:24;;;;;;;1.50;1.10;;;;;;;-128.00;-1.00;-1.00;18460;296;7504425;-35
2023/09/02 08:48:50;;;;;;;3.40;1.20;;;;;;;-128.00;-1.00;-1.00;18475;296;7505645;-31
2023/09/02 08:51:16;;;;;;;5.00;1.30;;;;;;;-128.00;-1.00;-1.00;18885;294;7504359;-35
2023/09/02 08:53:42;;;;;;;3.10;1.40;;;;;;;-128.00;-1.00;-1.00;18889;295;7504411;-33
2023/09/02 08:56:09;;;;;;;3.00;1.30;;;;;;;-128.00;-1.00;-1.00;18888;295;7505322;-33
2023/09/02 08:58:35;;;;;;;1.20;0.80;;;;;;;-128.00;-1.00;-1.00;18488;294;7506323;-32
2023/09/02 09:01:01;;;;;;;1.70;1.20;;;;;;;-128.00;-1.00;-1.00;18493;294;7504772;-32
2023/09/02 09:03:28;;;;;;;2.00;1.60;;;;;;;-128.00;-1.00;-1.00;18478;287;7504459;-31
2023/09/02 09:05:54;;;;;;;2.00;1.20;;;;;;;-128.00;-1.00;-1.00;18511;294;7505234;-36
2023/09/02 09:08:20;;;;;;;4.50;1.70;;;;;;;-128.00;-1.00;-1.00;18509;294;7506113;-36
2023/09/02 09:10:46;;;;;;;7.30;1.40;;;;;;;-128.00;-1.00;-1.00;18462;294;7504429;-32
2023/09/02 09:13:13;;;;;;;1.30;1.20;;;;;;;-128.00;-1.00;-1.00;18498;294;7505958;-33
2023/09/02 09:15:39;;;;;;;2.20;1.50;;;;;;;-128.00;-1.00;-1.00;18490;294;7504604;-36
2023/09/02 09:18:05;;;;;;;1.40;1.20;;;;;;;-128.00;-1.00;-1.00;18474;294;7504707;-33
2023/09/02 09:20:31;;;;;;;1.20;1.10;;;;;;;-128.00;-1.00;-1.00;18468;306;7504410;-33
2023/09/02 09:22:56;;;;;;;2.00;1.00;;;;;;;-128.00;-1.00;-1.00;17889;294;7505828;-37
2023/09/02 09:25:22;;;;;;;1.50;0.80;;;;;;;-128.00;-1.00;-1.00;18483;294;7504536;-36
2023/09/02 09:27:48;;;;;;;1.10;0.80;;;;;;;-128.00;-1.00;-1.00;18466;294;7504993;-32
2023/09/02 09:30:27;;;;;;;2.50;0.90;;;;;;;-128.00;-1.00;-1.00;18477;331;7506641;-32
2023/09/02 09:32:58;;;;;;;1.90;1.00;;;;;;;-128.00;-1.00;-1.00;18525;306;7504726;-35
2023/09/02 09:35:23;;;;;;;0.80;0.70;;;;;;;-128.00;-1.00;-1.00;18525;346;7504334;-31
2023/09/02 09:37:53;;;;;;;0.60;0.50;;;;;;;-128.00;-1.00;-1.00;18486;294;7504197;-35
2023/09/02 09:40:31;;;;;;;2.00;1.00;;;;;;;-128.00;-1.00;-1.00;18483;294;7504753;-32
2023/09/02 09:43:02;;;;;;;2.00;0.60;;;;;;;-128.00;-1.00;-1.00;18473;294;7505094;-35
2023/09/02 09:45:28;;;;;;;1.20;1.00;;;;;;;-128.00;-1.00;-1.00;18472;294;7506297;-35
2023/09/02 09:47:58;;;;;;;1.10;0.70;;;;;;;-128.00;-1.00;-1.00;18497;294;7504500;-32
2023/09/02 09:50:24;;;;;;;1.00;0.70;;;;;;;-128.00;-1.00;-1.00;18469;346;7504555;-36
2023/09/02 09:53:02;;;;;;;0.90;0.80;;;;;;;-128.00;-1.00;-1.00;18467;294;7505119;-32
2023/09/02 09:55:29;;;;;;;1.20;1.10;;;;;;;-128.00;-1.00;-1.00;18490;286;7506293;-35
2023/09/02 09:57:55;;;;;;;1.30;0.80;;;;;;;-128.00;-1.00;-1.00;18472;288;7505728;-32
2023/09/02 10:00:21;;;;;;;2.30;1.40;;;;;;;-128.00;-1.00;-1.00;18483;295;7505875;-36
2023/09/02 10:02:51;;;;;;;1.60;1.20;;;;;;;-128.00;-1.00;-1.00;18484;294;7505067;-35
2023/09/02 10:05:23;;;;;;;2.30;1.60;;;;;;;-128.00;-1.00;-1.00;18486;294;7504563;-36
2023/09/02 10:07:58;;;;;;;1.10;0.80;;;;;;;-128.00;-1.00;-1.00;18535;294;7504942;-31
2023/09/02 10:10:32;;;;;;;1.40;0.90;;;;;;;-128.00;-1.00;-1.00;18504;294;7505461;-35
2023/09/02 10:12:58;;;;;;;0.80;0.70;;;;;;;-128.00;-1.00;-1.00;18499;294;7504512;-31
2023/09/02 10:15:27;;;;;;;0.70;0.70;;;;;;;-128.00;-1.00;-1.00;18508;294;7504664;-35
2023/09/02 10:17:58;;;;;;;1.40;0.60;;;;;;;-128.00;-1.00;-1.00;18496;334;7506682;-31
2023/09/02 10:20:26;;;;;;;0.50;0.40;;;;;;;-128.00;-1.00;-1.00;18473;294;7504327;-31
2023/09/02 10:22:53;;;;;;;2.10;1.30;;;;;;;-128.00;-1.00;-1.00;18473;305;7506239;-31
2023/09/02 10:25:24;;;;;;;1.70;1.00;;;;;;;-128.00;-1.00;-1.00;18490;294;7505223;-35
2023/09/02 10:27:56;;;;;;;0.80;0.70;;;;;;;-128.00;-1.00;-1.00;18482;334;7504749;-34
2023/09/02 10:30:27;;;;;;;1.80;0.70;;;;;;;-128.00;-1.00;-1.00;18494;294;7504712;-31
2023/09/02 10:32:54;;;;;;;1.40;0.80;;;;;;;-128.00;-1.00;-1.00;18498;294;7505844;-36
2023/09/02 10:35:24;;;;;;;0.70;0.70;;;;;;;-128.00;-1.00;-1.00;18474;334;7504330;-32
2023/09/02 10:37:54;;;;;;;1.00;0.90;;;;;;;-128.00;-1.00;-1.00;18472;294;7506352;-36
2023/09/02 10:40:24;;;;;;;1.30;0.70;;;;;;;-128.00;-1.00;-1.00;18524;294;7504547;-32
2023/09/02 10:42:50;;;;;;;0.80;0.60;;;;;;;-128.00;-1.00;-1.00;18496;294;7505569;-35
2023/09/02 10:45:17;;;;;;;1.90;0.70;;;;;;;-128.00;-1.00;-1.00;18508;318;7504853;-31
2023/09/02 10:47:44;;;;;;;1.30;0.90;;;;;;;-128.00;-1.00;-1.00;18464;294;7505161;-31
2023/09/02 10:50:09;;;;;;;0.80;0.50;;;;;;;-128.00;-1.00;-1.00;18474;294;7506280;-35
2023/09/02 10:52:35;;;;;;;1.30;0.80;;;;;;;-128.00;-1.00;-1.00;18482;346;7504661;-32
2023/09/02 10:55:06;;;;;;;0.70;0.70;;;;;;;-128.00;-1.00;-1.00;18480;294;7506280;-36
2023/09/02 10:57:50;;;;;;;4.70;2.00;;;;;;;-128.00;-1.00;-1.00;18490;294;7504781;-36
2023/09/02 11:00:24;;;;;;;2.80;1.30;;;;;;;-128.00;-1.00;-1.00;18502;294;7506015;-33
2023/09/02 11:02:54;;;;;;;1.70;0.90;;;;;;;-128.00;-1.00;-1.00;18488;294;7504548;-33
2023/09/02 11:05:20;;;;;;;0.70;0.70;;;;;;;-128.00;-1.00;-1.00;18461;334;7504876;-36
2023/09/02 11:07:46;;;;;;;1.20;0.80;;;;;;;-128.00;-1.00;-1.00;18502;294;7505635;-33
2023/09/02 11:10:12;;;;;;;0.60;0.40;;;;;;;-128.00;-1.00;-1.00;18496;294;7504372;-36
2023/09/02 11:13:01;;;;;;;2.50;1.40;;;;;;;-128.00;-1.00;-1.00;18515;290;7506129;-33
2023/09/02 11:15:27;;;;;;;3.70;3.20;;;;;;;-128.00;-1.00;-1.00;18510;294;7504699;-32
2023/09/02 11:17:53;;;;;;;0.70;0.60;;;;;;;-128.00;-1.00;-1.00;18477;294;7505066;-36
2023/09/02 11:20:20;;;;;;;6.20;0.50;;;;;;;-128.00;-1.00;-1.00;18471;294;7505890;-36
2023/09/02 11:23:02;;;;;;;0.80;0.80;;;;;;;-128.00;-1.00;-1.00;18494;296;7505987;-36
2023/09/02 11:25:34;;;;;;;2.20;1.70;;;;;;;-128.00;-1.00;-1.00;18485;294;7504867;-33
2023/09/02 11:28:01;;;;;;;7.70;4.00;;;;;;;-128.00;-1.00;-1.00;18486;294;7504667;-35
2023/09/02 11:30:29;;;;;;;2.80;2.50;;;;;;;-128.00;-1.00;-1.00;18505;286;7504965;-36
2023/09/02 11:32:55;;;;;;;0.70;0.70;;;;;;;-128.00;-1.00;-1.00;18463;294;7506290;-36
2023/09/02 11:35:29;;;;;;;1.90;1.70;;;;;;;-128.00;-1.00;-1.00;18473;306;7506353;-32
2023/09/02 11:37:54;;;;;;;3.80;3.50;;;;;;;-128.00;-1.00;-1.00;18474;346;7504928;-36
2023/09/02 11:40:22;;;;;;;2.00;1.40;;;;;;;-128.00;-1.00;-1.00;18474;346;7504925;-32
2023/09/02 11:42:59;;;;;;;4.50;0.90;;;;;;;-128.00;-1.00;-1.00;18481;294;7506276;-32
2023/09/02 11:45:27;;;;;;;1.40;0.60;;;;;;;-128.00;-1.00;-1.00;18510;302;7504985;-31
2023/09/02 11:47:53;;;;;;;1.20;0.60;;;;;;;-128.00;-1.00;-1.00;18501;294;7504956;-32
2023/09/02 11:50:20;;;;;;;8.60;4.10;;;;;;;-128.00;-1.00;-1.00;18900;294;7504572;-31
2023/09/02 11:52:47;;;;;;;2.60;1.40;;;;;;;-128.00;-1.00;-1.00;18494;293;7507075;-36
2023/09/02 11:55:14;;;;;;;5.60;1.10;;;;;;;-128.00;-1.00;-1.00;18480;334;7504939;-36
2023/09/02 11:57:40;;;;;;;0.70;0.70;;;;;;;-128.00;-1.00;-1.00;18484;346;7504703;-35
2023/09/02 12:00:07;;;;;;;0.70;0.50;;;;;;;-128.00;-1.00;-1.00;18478;311;7505999;-36
2023/09/02 12:02:39;;;;;;;0.80;0.80;;;;;;;-128.00;-1.00;-1.00;18496;294;7506447;-32
2023/09/02 12:05:05;;;;;;;3.10;2.40;;;;;;;-128.00;-1.00;-1.00;18517;294;7507082;-36
2023/09/02 12:07:32;;;;;;;1.10;1.00;;;;;;;-128.00;-1.00;-1.00;18470;294;7505984;-32
2023/09/02 12:10:04;;;;;;;2.50;0.50;;;;;;;-128.00;-1.00;-1.00;18477;294;7504386;-36
2023/09/02 12:12:30;;;;;;;2.10;1.70;;;;;;;-128.00;-1.00;-1.00;18485;287;7506373;-35
2023/09/02 12:14:56;;;;;;;6.70;6.10;;;;;;;-128.00;-1.00;-1.00;18895;294;7504682;-32